Bayan-Ovoo, Mongolia
Current Conditions -  °F | °C
As of 9:30 AM on Monday 24 Nov 2014 (Local Time) from ZMUB Reporting Station
Clear Clear  
Wind Chill:   Ceiling: Unl
Heat Index:   Visibility: 6mi
Dew Point:   Wind: 2mph
Humidity: 67%   Direction: NA
Pressure: 29.91"   Gusts: NA
Location:  47.78°N, 112.12°E
Report Text: ZMUB 240130Z VRB01MPS CAVOK M13/M18 Q1013 NOSIG RMK QFE652.8 64
Loading
Personal Weather Stations






























Interactive Weather Map New forecast layout! Learn more

10-Day Weather Forecast

Advertisements
Track Severe Weather on mobile